createdAt,value
2018-07-09T00:01:30.680Z,21.47
2018-07-09T00:04:00.557Z,21.43
2018-07-09T00:06:30.452Z,21.51
2018-07-09T00:09:00.357Z,21.44
2018-07-09T00:11:30.288Z,21.41
2018-07-09T00:14:00.088Z,21.36
2018-07-09T00:16:30.040Z,21.40
2018-07-09T00:18:59.952Z,21.30
2018-07-09T00:21:29.856Z,21.34
2018-07-09T00:23:59.716Z,21.42
2018-07-09T00:26:29.724Z,21.40
2018-07-09T00:28:59.619Z,21.41
2018-07-09T00:31:29.580Z,21.43
2018-07-09T00:33:59.459Z,21.29
2018-07-09T00:36:29.316Z,21.31
2018-07-09T00:38:59.232Z,21.31
2018-07-09T00:41:29.255Z,21.33
2018-07-09T00:43:59.115Z,21.38
2018-07-09T00:46:29.340Z,21.33
2018-07-09T00:48:59.296Z,21.39
2018-07-09T00:51:29.312Z,21.38
2018-07-09T00:53:59.248Z,21.40
2018-07-09T00:56:29.101Z,21.40
2018-07-09T00:58:59.028Z,21.43
2018-07-09T01:01:28.967Z,21.41
2018-07-09T01:03:58.836Z,21.43
2018-07-09T01:06:28.756Z,21.41
2018-07-09T01:08:58.697Z,21.35
2018-07-09T01:11:39.776Z,21.43
2018-07-09T01:14:09.798Z,21.43
2018-07-09T01:16:39.638Z,21.45
2018-07-09T01:19:09.492Z,21.46
2018-07-09T01:21:39.375Z,21.51
2018-07-09T01:24:09.248Z,21.58
2018-07-09T01:26:39.248Z,21.47
2018-07-09T01:29:09.099Z,21.55
2018-07-09T01:31:39.028Z,21.52
2018-07-09T01:34:08.876Z,21.54
2018-07-09T01:36:38.714Z,21.47
2018-07-09T01:39:08.571Z,21.46
2018-07-09T01:41:38.408Z,21.37
2018-07-09T01:44:08.289Z,21.41
2018-07-09T01:46:38.184Z,21.45
2018-07-09T01:49:08.008Z,21.53
2018-07-09T01:51:37.952Z,21.47
2018-07-09T01:54:07.807Z,21.42
2018-07-09T01:56:37.664Z,21.34
2018-07-09T01:59:07.536Z,21.26
2018-07-09T02:01:37.364Z,21.16
2018-07-09T02:04:07.361Z,21.25
2018-07-09T02:06:37.214Z,21.25
2018-07-09T02:09:08.108Z,21.22
2018-07-09T02:11:38.587Z,21.25
2018-07-09T02:14:08.704Z,21.28
2018-07-09T02:16:38.560Z,21.18
2018-07-09T02:19:08.389Z,21.16
2018-07-09T02:21:38.269Z,21.15
2018-07-09T02:24:08.127Z,21.14
2018-07-09T02:26:37.996Z,21.15
2018-07-09T02:29:07.872Z,21.06
2018-07-09T02:31:37.740Z,21.07
2018-07-09T02:34:07.599Z,21.00
2018-07-09T02:36:37.424Z,21.01
2018-07-09T02:39:08.084Z,21.03
2018-07-09T02:41:37.940Z,21.07
2018-07-09T02:44:07.831Z,21.05
2018-07-09T02:46:37.737Z,21.07
2018-07-09T02:49:07.745Z,21.11
2018-07-09T02:51:37.518Z,21.13
2018-07-09T02:54:07.463Z,21.22
2018-07-09T02:56:37.329Z,21.27
2018-07-09T02:59:07.192Z,21.20
2018-07-09T03:01:37.022Z,21.14
2018-07-09T03:04:06.896Z,21.14
2018-07-09T03:06:36.769Z,21.23
2018-07-09T03:09:07.017Z,21.23
2018-07-09T03:11:37.183Z,21.18
2018-07-09T03:14:07.368Z,21.14
2018-07-09T03:16:37.348Z,21.18
2018-07-09T03:19:07.306Z,21.27
2018-07-09T03:21:37.257Z,21.27
2018-07-09T03:24:07.164Z,21.28
2018-07-09T03:26:37.024Z,21.40
2018-07-09T03:29:06.824Z,21.44
2018-07-09T03:31:36.700Z,21.45
2018-07-09T03:34:06.574Z,21.55
2018-07-09T03:36:36.426Z,21.46
2018-07-09T03:39:06.612Z,21.69
2018-07-09T03:41:36.524Z,21.69
2018-07-09T03:44:06.363Z,21.83
2018-07-09T03:46:36.284Z,22.04
2018-07-09T03:49:06.281Z,22.16
2018-07-09T03:51:36.147Z,22.35
2018-07-09T03:54:05.967Z,22.61
2018-07-09T03:56:35.820Z,22.73
2018-07-09T03:59:05.736Z,23.06
2018-07-09T04:01:35.570Z,23.34
2018-07-09T04:04:05.480Z,23.37
2018-07-09T04:06:35.288Z,23.65
2018-07-09T04:09:05.203Z,23.69
2018-07-09T04:11:34.978Z,23.86
2018-07-09T04:14:04.816Z,23.95
2018-07-09T04:16:34.684Z,24.06
2018-07-09T04:19:04.592Z,24.37
2018-07-09T04:21:34.456Z,24.51
2018-07-09T04:24:04.310Z,24.64
2018-07-09T04:26:34.189Z,24.82
2018-07-09T04:29:03.997Z,24.96
2018-07-09T04:31:33.833Z,25.15
2018-07-09T04:34:03.756Z,25.20
2018-07-09T04:36:33.615Z,25.33
2018-07-09T04:39:04.497Z,25.48
2018-07-09T04:41:34.364Z,25.49
2018-07-09T04:44:04.242Z,25.28
2018-07-09T04:46:34.098Z,25.03
2018-07-09T04:49:03.972Z,25.01
2018-07-09T04:51:33.893Z,24.90
2018-07-09T04:54:03.756Z,24.87
2018-07-09T04:56:33.600Z,24.83
2018-07-09T04:59:03.533Z,24.54
2018-07-09T05:01:33.360Z,23.99
2018-07-09T05:04:03.312Z,24.23
2018-07-09T05:06:33.150Z,24.13
2018-07-09T05:09:03.099Z,24.26
2018-07-09T05:11:32.904Z,24.26
2018-07-09T05:14:02.766Z,24.39
2018-07-09T05:16:32.579Z,24.26
2018-07-09T05:19:02.616Z,24.23
2018-07-09T05:21:32.460Z,24.09
2018-07-09T05:24:02.300Z,24.26
2018-07-09T05:26:32.152Z,24.38
2018-07-09T05:29:02.016Z,24.21
2018-07-09T05:31:31.916Z,24.29
2018-07-09T05:34:01.752Z,24.25
2018-07-09T05:36:31.622Z,24.14
2018-07-09T05:39:01.564Z,24.21
2018-07-09T05:41:31.691Z,24.40
2018-07-09T05:44:01.717Z,24.44
2018-07-09T05:46:31.800Z,24.51
2018-07-09T05:49:03.037Z,24.40
2018-07-09T05:51:33.049Z,24.41
2018-07-09T05:55:05.449Z,24.54
2018-07-09T05:57:35.337Z,24.56
2018-07-09T06:00:05.312Z,24.80
2018-07-09T06:02:35.191Z,24.81
2018-07-09T06:05:05.203Z,25.07
2018-07-09T06:07:35.097Z,25.11
2018-07-09T06:10:05.118Z,25.30
2018-07-09T06:12:35.082Z,25.46
2018-07-09T06:15:05.198Z,25.46
2018-07-09T06:17:35.140Z,25.33
2018-07-09T06:20:05.142Z,25.38
2018-07-09T06:22:34.989Z,25.56
2018-07-09T06:25:04.969Z,25.84
2018-07-09T06:27:34.814Z,25.97
2018-07-09T06:30:04.839Z,26.47
2018-07-09T06:32:34.781Z,26.85
2018-07-09T06:35:04.764Z,27.02
2018-07-09T06:37:34.956Z,26.95
2018-07-09T06:40:04.893Z,26.78
2018-07-09T06:42:34.743Z,26.63
2018-07-09T06:45:04.764Z,26.61
2018-07-09T06:47:34.600Z,26.87
2018-07-09T06:50:04.672Z,26.98
2018-07-09T06:52:34.636Z,27.06
2018-07-09T06:55:04.556Z,27.33
2018-07-09T06:57:34.552Z,27.43
2018-07-09T07:00:04.594Z,27.64
2018-07-09T07:02:34.552Z,27.70
2018-07-09T07:05:04.407Z,27.67
2018-07-09T07:07:34.348Z,27.86
2018-07-09T07:10:04.336Z,27.76
2018-07-09T07:12:34.269Z,27.72
2018-07-09T07:15:04.196Z,27.75
2018-07-09T07:17:34.141Z,28.02
2018-07-09T07:20:04.162Z,28.07
2018-07-09T07:22:34.338Z,27.82
2018-07-09T07:25:04.421Z,27.78
2018-07-09T07:27:34.355Z,27.87
2018-07-09T07:30:04.379Z,28.03
2018-07-09T07:32:34.273Z,28.04
2018-07-09T07:35:04.340Z,27.85
2018-07-09T07:37:34.352Z,28.04
2018-07-09T07:40:04.312Z,28.05
2018-07-09T07:42:34.254Z,28.20
2018-07-09T07:45:04.221Z,28.29
2018-07-09T07:47:34.260Z,28.34
2018-07-09T07:50:04.362Z,28.33
2018-07-09T07:52:34.361Z,28.31
2018-07-09T07:55:04.481Z,28.26
2018-07-09T07:57:34.474Z,28.09
2018-07-09T08:00:04.433Z,28.07
2018-07-09T08:02:34.420Z,28.11
2018-07-09T08:05:04.456Z,28.27
2018-07-09T08:07:35.106Z,28.33
2018-07-09T08:10:05.433Z,28.41
2018-07-09T08:15:05.476Z,28.34
2018-07-09T08:17:35.441Z,28.26
2018-07-09T08:20:05.876Z,28.22
2018-07-09T08:22:35.836Z,28.27
2018-07-09T08:25:05.897Z,28.06
2018-07-09T08:27:35.800Z,27.88
2018-07-09T08:30:05.832Z,28.05
2018-07-09T08:32:35.817Z,28.14
2018-07-09T08:35:05.693Z,28.16
2018-07-09T08:37:35.728Z,28.17
2018-07-09T08:40:05.812Z,28.22
2018-07-09T08:42:35.824Z,28.39
2018-07-09T08:45:06.180Z,28.39
2018-07-09T08:47:36.169Z,28.40
2018-07-09T08:50:06.357Z,28.39
2018-07-09T08:52:36.237Z,28.37
2018-07-09T08:55:06.209Z,28.54
2018-07-09T08:57:36.104Z,28.73
2018-07-09T09:00:06.109Z,28.74
2018-07-09T09:02:36.110Z,28.74
2018-07-09T09:05:06.080Z,28.85
2018-07-09T09:07:36.107Z,28.65
2018-07-09T09:10:06.143Z,28.78
2018-07-09T09:12:36.103Z,29.08
2018-07-09T09:15:06.049Z,29.20
2018-07-09T09:17:35.940Z,29.14
2018-07-09T09:20:05.838Z,28.98
2018-07-09T09:22:35.772Z,29.06
2018-07-09T09:25:05.872Z,29.30
2018-07-09T09:27:35.912Z,29.17
2018-07-09T09:30:06.420Z,29.24
2018-07-09T09:32:36.322Z,29.14
2018-07-09T09:35:06.264Z,28.98
2018-07-09T09:37:36.239Z,29.00
2018-07-09T09:40:06.244Z,29.30
2018-07-09T09:42:36.189Z,29.20
2018-07-09T09:45:06.132Z,29.30
2018-07-09T09:47:35.988Z,29.43
2018-07-09T09:50:05.955Z,29.50
2018-07-09T09:52:35.862Z,29.38
2018-07-09T09:55:05.874Z,29.42
2018-07-09T09:57:35.774Z,29.34
2018-07-09T10:00:06.106Z,29.46
2018-07-09T10:02:35.960Z,29.49
2018-07-09T10:05:05.912Z,29.49
2018-07-09T10:07:35.786Z,29.42
2018-07-09T10:10:05.696Z,29.26
2018-07-09T10:12:35.543Z,29.35
2018-07-09T10:15:05.489Z,29.66
2018-07-09T10:17:35.378Z,29.72
2018-07-09T10:20:05.366Z,29.49
2018-07-09T10:22:35.226Z,29.66
2018-07-09T10:25:05.196Z,29.75
2018-07-09T10:27:35.122Z,29.84
2018-07-09T10:30:05.433Z,30.08
2018-07-09T10:32:35.353Z,29.86
2018-07-09T10:35:05.295Z,29.92
2018-07-09T10:37:35.176Z,30.13
2018-07-09T10:40:05.545Z,30.20
2018-07-09T10:42:35.482Z,30.21
2018-07-09T10:45:05.432Z,30.24
2018-07-09T10:47:35.375Z,30.25
2018-07-09T10:50:05.427Z,30.52
2018-07-09T10:52:35.330Z,30.54
2018-07-09T10:55:05.489Z,30.61
2018-07-09T10:57:35.396Z,30.60
2018-07-09T11:00:05.692Z,30.43
2018-07-09T11:02:35.676Z,30.43
2018-07-09T11:05:05.724Z,30.48
2018-07-09T11:07:35.596Z,30.50
2018-07-09T11:10:05.560Z,30.53
2018-07-09T11:12:35.388Z,30.73
2018-07-09T11:15:05.508Z,30.57
2018-07-09T11:17:35.372Z,30.62
2018-07-09T11:20:05.487Z,30.50
2018-07-09T11:22:35.452Z,30.61
2018-07-09T11:25:05.484Z,30.04
2018-07-09T11:27:35.503Z,30.75
2018-07-09T11:30:05.533Z,30.76
2018-07-09T11:32:35.524Z,30.78
2018-07-09T11:35:05.370Z,30.57
2018-07-09T11:37:35.399Z,30.54
2018-07-09T11:40:05.462Z,30.50
2018-07-09T11:42:35.360Z,30.54
2018-07-09T11:45:05.305Z,30.74
2018-07-09T11:47:35.272Z,30.83
2018-07-09T11:50:05.416Z,31.13
2018-07-09T11:52:35.368Z,31.22
2018-07-09T11:55:05.364Z,31.34
2018-07-09T11:57:35.242Z,31.41
2018-07-09T12:00:05.594Z,31.55
2018-07-09T12:02:35.572Z,31.55
2018-07-09T12:05:05.820Z,31.39
2018-07-09T12:07:35.707Z,31.47
2018-07-09T12:10:06.096Z,31.60
2018-07-09T12:12:36.056Z,31.76
2018-07-09T12:15:06.208Z,31.91
2018-07-09T12:17:36.017Z,31.88
2018-07-09T12:20:05.930Z,31.74
2018-07-09T12:22:35.766Z,31.51
2018-07-09T12:25:05.816Z,31.70
2018-07-09T12:27:35.792Z,31.51
2018-07-09T12:30:05.736Z,31.47
2018-07-09T12:32:35.644Z,31.64
2018-07-09T12:35:05.556Z,31.94
2018-07-09T12:37:35.414Z,31.98
2018-07-09T12:40:05.373Z,31.90
2018-07-09T12:42:35.260Z,31.51
2018-07-09T12:45:05.272Z,31.28
2018-07-09T12:47:35.191Z,30.92
2018-07-09T12:50:05.144Z,30.74
2018-07-09T12:52:35.008Z,30.79
2018-07-09T12:55:04.911Z,30.72
2018-07-09T12:57:34.775Z,30.40
2018-07-09T13:00:04.860Z,30.23
2018-07-09T13:02:34.749Z,30.23
2018-07-09T13:05:04.696Z,30.17
2018-07-09T13:07:35.283Z,30.06
2018-07-09T13:10:05.423Z,30.17
2018-07-09T13:12:35.275Z,30.08
2018-07-09T13:15:05.320Z,30.12
2018-07-09T13:17:35.206Z,30.02
2018-07-09T13:20:05.291Z,30.02
2018-07-09T13:22:35.252Z,29.84
2018-07-09T13:25:05.401Z,29.36
2018-07-09T13:27:35.356Z,29.12
2018-07-09T13:30:05.549Z,28.91
2018-07-09T13:32:35.529Z,28.93
2018-07-09T13:35:05.476Z,29.09
2018-07-09T13:37:35.572Z,29.00
2018-07-09T13:40:05.530Z,29.04
2018-07-09T13:42:35.562Z,29.21
2018-07-09T13:45:05.653Z,29.37
2018-07-09T13:47:35.622Z,29.33
2018-07-09T13:50:05.861Z,29.22
2018-07-09T13:52:35.831Z,29.12
2018-07-09T13:55:06.009Z,29.32
2018-07-09T13:57:36.084Z,29.16
2018-07-09T14:00:06.513Z,28.76
2018-07-09T14:02:36.356Z,28.62
2018-07-09T14:05:06.303Z,28.36
2018-07-09T14:07:36.208Z,28.44
2018-07-09T14:10:06.132Z,28.48
2018-07-09T14:12:36.101Z,28.47
2018-07-09T14:15:06.227Z,28.40
2018-07-09T14:17:36.205Z,28.43
2018-07-09T14:20:22.124Z,28.46
2018-07-09T14:22:52.232Z,28.56
2018-07-09T14:25:22.049Z,28.55
2018-07-09T14:27:52.873Z,28.54
2018-07-09T14:30:22.844Z,28.52
2018-07-09T14:32:52.698Z,28.40
2018-07-09T14:35:22.611Z,28.07
2018-07-09T14:37:52.403Z,27.85
2018-07-09T14:40:22.379Z,27.57
2018-07-09T14:42:52.268Z,27.44
2018-07-09T14:45:22.133Z,27.23
2018-07-09T14:47:52.022Z,26.60
2018-07-09T14:50:21.908Z,27.08
2018-07-09T14:52:51.736Z,27.03
2018-07-09T14:55:21.556Z,27.01
2018-07-09T14:57:51.432Z,26.98
2018-07-09T15:00:21.360Z,27.05
2018-07-09T15:02:51.259Z,27.18
2018-07-09T15:05:21.145Z,27.18
2018-07-09T15:07:51.021Z,27.08
2018-07-09T15:10:20.856Z,27.12
2018-07-09T15:12:50.692Z,27.24
2018-07-09T15:15:20.503Z,27.28
2018-07-09T15:17:50.395Z,27.12
2018-07-09T15:20:20.189Z,27.04
2018-07-09T15:22:50.019Z,27.12
2018-07-09T15:25:19.865Z,27.18
2018-07-09T15:27:49.733Z,27.27
2018-07-09T15:30:19.548Z,26.67
2018-07-09T15:32:49.419Z,27.29
2018-07-09T15:35:19.223Z,27.21
2018-07-09T15:37:49.112Z,27.21
2018-07-09T15:40:18.881Z,27.18
2018-07-09T15:42:48.697Z,27.19
2018-07-09T15:45:18.472Z,27.19
2018-07-09T15:47:48.244Z,27.15
2018-07-09T15:50:18.068Z,27.05
2018-07-09T15:52:47.868Z,27.08
2018-07-09T15:55:17.692Z,27.07
2018-07-09T15:57:47.508Z,27.05
2018-07-09T16:00:17.364Z,26.97
2018-07-09T16:02:47.176Z,27.00
2018-07-09T16:05:17.000Z,26.92
2018-07-09T16:07:46.804Z,26.96
2018-07-09T16:10:16.640Z,26.96
2018-07-09T16:12:46.437Z,26.94
2018-07-09T16:15:16.308Z,26.95
2018-07-09T16:17:46.122Z,26.91
2018-07-09T16:20:15.971Z,26.89
2018-07-09T16:22:45.852Z,26.83
2018-07-09T16:25:15.672Z,26.75
2018-07-09T16:27:45.484Z,26.71
2018-07-09T16:30:15.265Z,26.69
2018-07-09T16:32:45.176Z,26.60
2018-07-09T16:35:14.954Z,26.56
2018-07-09T16:37:44.781Z,26.50
2018-07-09T16:40:14.599Z,26.47
2018-07-09T16:42:44.522Z,26.42
2018-07-09T16:45:14.320Z,26.32
2018-07-09T16:47:44.172Z,26.25
2018-07-09T16:50:14.017Z,26.16
2018-07-09T16:52:43.890Z,26.13
2018-07-09T16:55:13.688Z,26.04
2018-07-09T16:57:43.515Z,25.97
2018-07-09T17:00:13.375Z,25.70
2018-07-09T17:02:43.196Z,25.59
2018-07-09T17:05:13.010Z,25.52
2018-07-09T17:07:43.013Z,25.34
2018-07-09T17:10:12.781Z,25.34
2018-07-09T17:12:42.605Z,25.30
2018-07-09T17:15:12.484Z,25.29
2018-07-09T17:17:42.293Z,25.26
2018-07-09T17:20:12.129Z,25.16
2018-07-09T17:22:41.944Z,25.02
2018-07-09T17:25:11.804Z,24.74
2018-07-09T17:27:41.580Z,24.70
2018-07-09T17:30:11.403Z,24.41
2018-07-09T17:32:41.305Z,24.24
2018-07-09T17:35:11.175Z,23.96
2018-07-09T17:37:41.004Z,23.73
2018-07-09T17:40:11.008Z,23.55
2018-07-09T17:42:40.804Z,23.30
2018-07-09T17:45:10.628Z,23.08
2018-07-09T17:47:40.448Z,22.94
2018-07-09T17:50:10.341Z,22.67
2018-07-09T17:52:40.181Z,22.47
2018-07-09T17:55:10.012Z,22.50
2018-07-09T17:57:39.835Z,22.25
2018-07-09T18:00:09.712Z,22.22
2018-07-09T18:02:39.559Z,22.15
2018-07-09T18:05:09.393Z,21.97
2018-07-09T18:07:39.308Z,21.92
2018-07-09T18:10:09.200Z,21.84
2018-07-09T18:12:38.988Z,21.72
2018-07-09T18:15:08.848Z,21.71
2018-07-09T18:17:38.660Z,21.69
2018-07-09T18:20:08.452Z,21.59
2018-07-09T18:22:38.276Z,21.57
2018-07-09T18:25:08.540Z,21.52
2018-07-09T18:27:38.620Z,21.48
2018-07-09T18:30:08.456Z,21.41
2018-07-09T18:32:38.298Z,21.39
2018-07-09T18:35:08.225Z,21.48
2018-07-09T18:37:38.094Z,21.47
2018-07-09T18:40:07.904Z,21.26
2018-07-09T18:42:37.691Z,21.28
2018-07-09T18:45:07.652Z,21.29
2018-07-09T18:47:37.484Z,21.33
2018-07-09T18:50:07.349Z,21.22
2018-07-09T18:52:38.220Z,21.22
2018-07-09T18:55:08.100Z,21.18
2018-07-09T18:57:37.888Z,21.17
2018-07-09T19:00:07.821Z,21.06
2018-07-09T19:02:37.631Z,21.14
2018-07-09T19:05:07.406Z,20.93
2018-07-09T19:07:37.205Z,20.96
2018-07-09T19:10:07.104Z,20.85
2018-07-09T19:12:37.858Z,20.98
2018-07-09T19:15:09.021Z,20.90
2018-07-09T19:17:59.845Z,20.98
2018-07-09T19:20:40.440Z,20.98
2018-07-09T19:23:09.450Z,20.91
2018-07-09T19:25:38.426Z,21.04
2018-07-09T19:28:08.010Z,21.01
2018-07-09T19:30:36.396Z,21.07
2018-07-09T19:33:04.725Z,21.01
2018-07-09T19:35:33.092Z,21.01
2018-07-09T19:38:01.678Z,20.98
2018-07-09T19:40:29.932Z,21.01
2018-07-09T19:42:58.345Z,20.98
2018-07-09T19:45:26.669Z,21.05
2018-07-09T19:47:55.053Z,21.03
2018-07-09T19:50:23.464Z,21.09
2018-07-09T19:52:51.860Z,21.06
2018-07-09T19:55:20.293Z,21.06
2018-07-09T19:57:48.676Z,21.05
2018-07-09T20:00:17.104Z,20.98
2018-07-09T20:02:45.432Z,21.03
2018-07-09T20:05:13.757Z,21.06
2018-07-09T20:07:42.168Z,21.05
2018-07-09T20:10:15.730Z,21.12
2018-07-09T20:12:49.140Z,21.22
2018-07-09T20:15:22.507Z,21.24
2018-07-09T20:17:50.911Z,21.21
2018-07-09T20:20:19.297Z,21.07
2018-07-09T20:22:47.763Z,21.24
2018-07-09T20:25:16.187Z,21.22
2018-07-09T20:27:44.612Z,21.14
2018-07-09T20:30:12.972Z,21.21
2018-07-09T20:32:41.363Z,21.31
2018-07-09T20:35:09.790Z,21.36
2018-07-09T20:37:38.168Z,21.29
2018-07-09T20:40:06.650Z,21.34
2018-07-09T20:42:34.996Z,21.38
2018-07-09T20:45:03.313Z,21.37
2018-07-09T20:47:31.700Z,21.40
2018-07-09T20:50:00.117Z,21.44
2018-07-09T20:52:28.527Z,21.40
2018-07-09T20:54:57.090Z,21.45
2018-07-09T20:57:25.411Z,21.31
2018-07-09T20:59:53.798Z,21.42
2018-07-09T21:02:22.208Z,21.46
2018-07-09T21:04:50.652Z,21.49
2018-07-09T21:07:19.033Z,21.53
2018-07-09T21:09:47.445Z,21.58
2018-07-09T21:12:15.808Z,21.54
2018-07-09T21:14:44.216Z,21.51
2018-07-09T21:17:12.543Z,21.45
2018-07-09T21:19:40.872Z,21.52
2018-07-09T21:22:09.376Z,21.59
2018-07-09T21:24:37.792Z,21.48
2018-07-09T21:27:06.144Z,21.50
2018-07-09T21:29:34.471Z,21.49
2018-07-09T21:32:02.828Z,21.48
2018-07-09T21:34:31.162Z,21.46
2018-07-09T21:36:59.529Z,21.45
2018-07-09T21:39:27.860Z,21.44
2018-07-09T21:41:56.296Z,21.33
2018-07-09T21:44:24.628Z,21.24
2018-07-09T21:46:52.987Z,21.23
2018-07-09T21:49:21.320Z,21.31
2018-07-09T21:51:49.683Z,21.34
2018-07-09T21:54:18.008Z,21.28
2018-07-09T21:56:46.369Z,21.26
2018-07-09T21:59:14.708Z,21.24
2018-07-09T22:01:43.081Z,21.26
2018-07-09T22:04:11.421Z,21.31
2018-07-09T22:06:39.828Z,21.34
2018-07-09T22:09:08.168Z,21.33
2018-07-09T22:11:36.535Z,21.25
2018-07-09T22:14:04.876Z,21.24
2018-07-09T22:16:33.252Z,21.26
2018-07-09T22:19:01.656Z,21.25
2018-07-09T22:21:29.983Z,21.29
2018-07-09T22:23:58.343Z,21.28
2018-07-09T22:26:26.668Z,21.21
2018-07-09T22:28:55.041Z,21.22
2018-07-09T22:31:24.947Z,21.16
2018-07-09T22:33:54.767Z,21.20
2018-07-09T22:36:24.599Z,21.21
2018-07-09T22:38:54.420Z,21.31
2018-07-09T22:41:24.223Z,21.31
2018-07-09T22:44:04.880Z,21.25
2018-07-09T22:46:34.652Z,21.23
2018-07-09T22:49:04.477Z,21.24
2018-07-09T22:51:34.324Z,21.29
2018-07-09T22:54:04.428Z,21.32
2018-07-09T22:56:34.255Z,21.28
2018-07-09T22:59:04.149Z,21.36
2018-07-09T23:01:33.940Z,21.24
2018-07-09T23:04:03.832Z,21.18
2018-07-09T23:06:33.663Z,21.13
2018-07-09T23:11:34.288Z,21.07
2018-07-09T23:16:43.272Z,21.09
2018-07-09T23:19:28.925Z,21.15
2018-07-09T23:22:09.640Z,21.19
2018-07-09T23:24:37.976Z,21.08
2018-07-09T23:27:06.389Z,21.06
2018-07-09T23:29:34.793Z,21.11
2018-07-09T23:32:03.208Z,21.12
2018-07-09T23:34:31.620Z,21.19
2018-07-09T23:37:00.024Z,21.13
2018-07-09T23:39:28.462Z,21.12
2018-07-09T23:41:56.939Z,21.17
2018-07-09T23:44:25.308Z,21.12
2018-07-09T23:46:53.764Z,21.06
2018-07-09T23:49:22.167Z,21.08
2018-07-09T23:51:50.617Z,21.01
2018-07-09T23:54:19.027Z,20.96
2018-07-09T23:56:56.204Z,20.95
2018-07-09T23:59:36.973Z,20.87
